Time;durP1;ratioP1;P1;durP2;ratioP2;P2;SDS_P1;SDS_P2;PMS_P1;PMS_P2;Temp;Humidity;BMP_temperature;BMP_pressure;BME280_temperature;BME280_humidity;BME280_pressure;Samples;Min_cycle;Max_cycle;Signal;HPM_P1;HPM_P2
2022/05/26 00:01:21;;;;;;;36.78;25.13;;;;;;;22.10;72.82;95270.81;5063483;28;20283;-72
2022/05/26 00:03:48;;;;;;;43.88;27.42;;;;;;;21.90;73.42;95267.09;5062358;28;20206;-72
2022/05/26 00:06:18;;;;;;;38.22;27.35;;;;;;;21.68;74.27;95266.13;5061665;28;20218;-72
2022/05/26 00:08:46;;;;;;;40.13;26.77;;;;;;;21.53;74.82;95256.88;5060886;28;20207;-73
2022/05/26 00:11:18;;;;;;;42.33;25.92;;;;;;;21.56;74.42;95256.66;5060700;28;20835;-72
2022/05/26 00:13:45;;;;;;;42.92;26.27;;;;;;;21.46;74.54;95255.69;5061986;28;20238;-72
2022/05/26 00:16:13;;;;;;;47.53;27.45;;;;;;;21.09;75.83;95265.25;5060786;28;20209;-72
2022/05/26 00:18:40;;;;;;;41.63;27.38;;;;;;;21.11;76.16;95260.81;5063188;28;20194;-72
2022/05/26 00:21:07;;;;;;;46.22;28.13;;;;;;;21.15;75.68;95262.22;5063479;28;20713;-72
2022/05/26 00:23:34;;;;;;;41.92;26.60;;;;;;;20.95;76.46;95252.50;5061980;28;20233;-72
2022/05/26 00:26:01;;;;;;;41.28;26.92;;;;;;;20.54;78.07;95250.28;5063181;28;20233;-72
2022/05/26 00:28:30;;;;;;;43.97;28.25;;;;;;;20.18;80.51;95243.25;5063067;28;20262;-72
2022/05/26 00:30:56;;;;;;;43.40;29.55;;;;;;;20.17;80.25;95251.94;5064454;28;20229;-72
2022/05/26 00:33:23;;;;;;;35.78;26.48;;;;;;;20.09;81.46;95243.88;5065766;28;20228;-72
2022/05/26 00:35:50;;;;;;;40.90;28.17;;;;;;;20.10;81.72;95241.19;5062408;28;20306;-72
2022/05/26 00:38:17;;;;;;;45.92;28.30;;;;;;;20.15;81.37;95244.28;5064262;28;20237;-72
2022/05/26 00:40:46;;;;;;;44.05;27.52;;;;;;;19.99;82.05;95234.19;5064627;28;20221;-72
2022/05/26 00:43:14;;;;;;;43.50;28.23;;;;;;;19.85;83.04;95261.84;5065687;28;20202;-72
2022/05/26 00:45:55;;;;;;;40.78;29.63;;;;;;;20.10;82.18;95261.84;5063355;28;20255;-72
2022/05/26 00:48:25;;;;;;;42.90;28.02;;;;;;;20.16;81.85;95255.44;5064429;28;20684;-72
2022/05/26 00:50:55;;;;;;;41.55;29.67;;;;;;;20.10;81.67;95267.00;5063062;28;20229;-71
2022/05/26 00:53:27;;;;;;;40.85;28.02;;;;;;;19.82;83.29;95256.88;5065650;28;20222;-72
2022/05/26 00:55:59;;;;;;;44.47;29.02;;;;;;;19.62;83.64;95251.28;5063597;28;20202;-72
2022/05/26 00:58:31;;;;;;;37.80;27.35;;;;;;;19.92;83.18;95258.75;5064379;28;20208;-72
2022/05/26 01:01:03;;;;;;;45.05;27.83;;;;;;;20.04;82.18;95262.28;5063328;28;20746;-72
2022/05/26 01:03:33;;;;;;;42.97;28.38;;;;;;;20.14;81.96;95259.88;5064855;28;21810;-72
2022/05/26 01:06:02;;;;;;;47.00;28.83;;;;;;;20.15;81.22;95262.34;5063597;28;20206;-72
2022/05/26 01:08:35;;;;;;;45.03;28.38;;;;;;;20.27;80.94;95269.28;5064055;28;20233;-72
2022/05/26 01:11:02;;;;;;;40.40;27.55;;;;;;;20.20;80.91;95262.88;5064107;28;20236;-72
2022/05/26 01:13:31;;;;;;;46.70;30.42;;;;;;;20.12;81.33;95278.03;5062404;28;20258;-72
2022/05/26 01:16:09;;;;;;;43.20;28.90;;;;;;;19.79;82.00;95275.16;5064477;28;20282;-72
2022/05/26 01:18:45;;;;;;;43.72;29.48;;;;;;;19.36;84.58;95277.91;5064528;28;20229;-72
2022/05/26 01:21:19;;;;;;;51.67;28.52;;;;;;;19.49;84.12;95280.53;5063515;28;20226;-72
2022/05/26 01:24:20;;;;;;;44.38;28.83;;;;;;;19.30;84.95;95275.75;5065025;28;20233;-71
2022/05/26 01:27:26;;;;;;;50.40;29.50;;;;;;;18.89;86.82;95270.63;5063378;28;20208;-71
2022/05/26 01:30:17;;;;;;;49.05;30.45;;;;;;;18.94;87.31;95278.91;5063809;28;20229;-71
2022/05/26 01:33:14;;;;;;;45.33;28.95;;;;;;;19.21;86.29;95278.91;5064174;28;20201;-72
2022/05/26 01:35:47;;;;;;;44.85;28.08;;;;;;;19.32;85.26;95281.63;5064063;28;20202;-71
2022/05/26 01:38:23;;;;;;;49.42;30.08;;;;;;;19.59;84.16;95297.91;5063039;28;20304;-71
2022/05/26 01:40:56;;;;;;;43.13;28.05;;;;;;;19.66;83.16;95278.53;5063127;28;20225;-72
2022/05/26 01:43:30;;;;;;;42.90;28.30;;;;;;;19.61;83.37;95296.06;5063056;28;20292;-72
2022/05/26 01:46:02;;;;;;;42.47;27.73;;;;;;;19.74;83.02;95285.78;5063097;28;20202;-71
2022/05/26 01:48:36;;;;;;;42.28;28.67;;;;;;;19.45;83.98;95287.66;5062337;28;20282;-71
2022/05/26 01:51:13;;;;;;;47.20;28.45;;;;;;;19.31;84.68;95283.38;5060792;28;20325;-71
2022/05/26 01:53:47;;;;;;;43.03;27.75;;;;;;;19.18;85.08;95282.50;5062021;28;20189;-72
2022/05/26 01:56:22;;;;;;;45.10;30.10;;;;;;;19.28;84.77;95277.59;5061529;28;20683;-72
2022/05/26 01:58:52;;;;;;;45.50;27.70;;;;;;;19.29;84.49;95276.69;5061772;28;20202;-71
2022/05/26 02:01:24;;;;;;;41.83;29.60;;;;;;;18.87;86.52;95267.34;5060661;28;20627;-72
2022/05/26 02:03:55;;;;;;;47.08;29.20;;;;;;;18.85;87.08;95279.47;5063313;28;20202;-72
2022/05/26 02:06:26;;;;;;;43.70;29.00;;;;;;;19.00;86.63;95274.22;5064054;28;20225;-72
2022/05/26 02:08:59;;;;;;;45.05;27.95;;;;;;;19.14;85.79;95280.22;5063028;28;20209;-71
2022/05/26 02:11:26;;;;;;;44.65;29.58;;;;;;;18.74;87.06;95262.13;5063167;28;20233;-72
2022/05/26 02:13:58;;;;;;;43.08;27.65;;;;;;;19.10;85.46;95253.81;5063373;28;20213;-72
2022/05/26 02:16:33;;;;;;;45.28;29.15;;;;;;;19.00;86.02;95265.66;5063082;28;20213;-72
2022/05/26 02:19:09;;;;;;;48.50;28.60;;;;;;;19.07;86.17;95284.09;5063821;28;20198;-72
2022/05/26 02:21:43;;;;;;;45.58;30.13;;;;;;;19.20;85.56;95282.41;5062922;28;20232;-72
2022/05/26 02:24:17;;;;;;;43.58;29.27;;;;;;;19.42;84.27;95280.09;5062469;28;20204;-72
2022/05/26 02:26:44;;;;;;;41.28;27.05;;;;;;;19.43;84.28;95286.91;5063284;28;20202;-71
2022/05/26 02:31:56;;;;;;;39.38;28.23;;;;;;;19.59;82.75;95291.91;5063022;28;20235;-72
2022/05/26 02:34:26;;;;;;;43.33;29.27;;;;;;;19.53;83.48;95288.00;5064093;28;20229;-72
2022/05/26 02:36:57;;;;;;;44.95;29.98;;;;;;;19.17;85.75;95290.34;5064707;28;20847;-72
2022/05/26 02:39:24;;;;;;;52.85;30.20;;;;;;;19.31;85.01;95279.97;5067890;28;20656;-72
2022/05/26 02:41:54;;;;;;;48.25;30.55;;;;;;;19.51;83.24;95256.34;5066896;28;20355;-72
2022/05/26 02:44:22;;;;;;;48.55;31.13;;;;;;;19.45;83.86;95271.34;5066968;28;20225;-72
2022/05/26 02:46:58;;;;;;;49.95;31.02;;;;;;;19.21;85.43;95276.34;5065896;28;20202;-72
2022/05/26 02:49:47;;;;;;;50.45;31.30;;;;;;;19.35;85.07;95278.84;5066506;28;20278;-71
2022/05/26 02:52:22;;;;;;;44.28;28.30;;;;;;;19.25;85.29;95272.66;5065044;28;20269;-72
2022/05/26 02:55:04;;;;;;;42.35;29.70;;;;;;;19.33;85.13;95276.34;5066709;28;20672;-72
2022/05/26 02:57:38;;;;;;;46.80;29.90;;;;;;;19.25;85.60;95298.41;5064147;28;20225;-72
2022/05/26 03:00:08;;;;;;;49.35;31.08;;;;;;;19.29;85.70;95302.44;5067136;28;20198;-72
2022/05/26 03:02:41;;;;;;;44.13;30.23;;;;;;;19.41;85.07;95299.06;5064359;28;20271;-72
2022/05/26 03:05:16;;;;;;;42.15;30.23;;;;;;;19.28;85.58;95293.06;5065883;28;20735;-72
2022/05/26 03:07:47;;;;;;;44.22;28.20;;;;;;;19.31;85.28;95295.41;5066170;28;20240;-72
2022/05/26 03:10:15;;;;;;;42.50;29.77;;;;;;;19.46;85.03;95312.50;5065982;28;20319;-72
2022/05/26 03:12:42;;;;;;;53.25;29.83;;;;;;;19.63;83.69;95314.81;5065569;28;20197;-72
2022/05/26 03:15:10;;;;;;;42.08;29.90;;;;;;;19.65;83.54;95317.31;5066092;28;20203;-72
2022/05/26 03:17:37;;;;;;;43.88;30.42;;;;;;;19.65;83.70;95323.28;5064309;28;20298;-72
2022/05/26 03:20:06;;;;;;;41.75;28.58;;;;;;;19.67;83.21;95308.56;5062583;28;20770;-72
2022/05/26 03:22:34;;;;;;;49.60;30.38;;;;;;;19.75;82.76;95309.81;5064241;28;20252;-71
2022/05/26 03:25:03;;;;;;;45.38;28.60;;;;;;;19.48;84.65;95320.13;5064649;28;20202;-72
2022/05/26 03:27:30;;;;;;;43.33;28.75;;;;;;;19.45;85.21;95316.00;5064785;28;20229;-72
2022/05/26 03:29:56;;;;;;;45.65;29.63;;;;;;;19.70;83.88;95318.66;5065340;28;20251;-72
2022/05/26 03:32:24;;;;;;;47.58;31.05;;;;;;;19.74;83.58;95326.22;5065708;28;20229;-72
2022/05/26 03:43:06;;;;;;;56.35;32.38;;;;;;;18.99;86.82;95318.91;5065669;28;20216;-72
2022/05/26 03:45:34;;;;;;;54.90;32.20;;;;;;;19.27;85.63;95330.06;5064256;28;20291;-72
2022/05/26 03:48:01;;;;;;;57.92;32.88;;;;;;;19.56;84.36;95339.34;5063594;28;20326;-72
2022/05/26 03:50:28;;;;;;;56.55;32.03;;;;;;;19.46;84.54;95340.03;5064402;28;20562;-72
2022/05/26 03:52:57;;;;;;;61.22;31.80;;;;;;;19.24;85.50;95348.28;5066234;28;20241;-72
2022/05/26 03:55:24;;;;;;;53.25;30.88;;;;;;;19.05;86.46;95347.78;5065047;28;20305;-72
2022/05/26 03:57:51;;;;;;;49.88;31.65;;;;;;;18.94;87.25;95353.59;5064311;28;20241;-72
2022/05/26 04:00:23;;;;;;;60.47;37.25;;;;;;;18.90;87.29;95360.69;5065021;28;20939;-72
2022/05/26 04:02:50;;;;;;;73.82;42.83;;;;;;;18.87;87.63;95366.00;5065580;28;20620;-72
2022/05/26 04:05:17;;;;;;;64.32;36.88;;;;;;;19.23;86.80;95369.81;5064713;28;20263;-72
2022/05/26 04:07:44;;;;;;;62.25;36.33;;;;;;;19.62;84.17;95362.16;5065255;28;20229;-72
2022/05/26 04:10:13;;;;;;;151.85;96.63;;;;;;;19.94;82.66;95362.66;5064710;28;20248;-72
2022/05/26 04:12:42;;;;;;;91.20;51.15;;;;;;;20.22;81.38;95359.09;5063902;28;20703;-72
2022/05/26 04:15:10;;;;;;;63.88;36.75;;;;;;;20.12;81.45;95359.78;5063940;28;20316;-72
2022/05/26 04:17:38;;;;;;;68.75;34.95;;;;;;;20.02;81.96;95362.16;5063701;28;20313;-72
2022/05/26 04:20:07;;;;;;;54.10;31.60;;;;;;;20.13;81.46;95348.53;5062705;28;20260;-72
2022/05/26 04:22:34;;;;;;;49.97;32.60;;;;;;;20.24;81.02;95349.50;5063213;28;20202;-72
2022/05/26 04:25:01;;;;;;;59.53;32.45;;;;;;;20.66;79.28;95363.03;5062470;28;20229;-72
2022/05/26 04:27:31;;;;;;;53.08;30.23;;;;;;;20.99;78.16;95370.22;5063570;28;20210;-72
2022/05/26 04:29:58;;;;;;;51.95;30.55;;;;;;;21.22;77.17;95378.97;5064901;28;20523;-72
2022/05/26 04:32:25;;;;;;;57.55;30.88;;;;;;;21.35;76.90;95377.16;5064912;28;20299;-72
2022/05/26 04:34:53;;;;;;;58.53;36.15;;;;;;;21.51;76.08;95375.16;5065092;28;20229;-72
2022/05/26 04:37:23;;;;;;;57.38;36.60;;;;;;;21.66;75.14;95380.97;5063637;28;20673;-72
2022/05/26 04:39:50;;;;;;;54.25;33.03;;;;;;;21.87;74.24;95376.81;5064269;28;20226;-72
2022/05/26 04:42:18;;;;;;;58.72;31.98;;;;;;;22.03;73.61;95379.13;5063492;28;20788;-72
2022/05/26 04:44:47;;;;;;;48.55;30.13;;;;;;;22.15;73.46;95380.84;5065102;28;20293;-72
2022/05/26 04:47:14;;;;;;;53.88;29.73;;;;;;;22.23;72.76;95373.31;5064706;28;20233;-72
2022/05/26 04:49:42;;;;;;;48.53;29.13;;;;;;;22.44;72.44;95377.84;5064804;28;20263;-72
2022/05/26 04:52:10;;;;;;;58.90;31.38;;;;;;;22.73;71.14;95373.88;5063886;28;20310;-72
2022/05/26 04:54:38;;;;;;;59.90;29.50;;;;;;;23.00;70.05;95371.78;5063337;28;20233;-72
2022/05/26 04:57:07;;;;;;;43.42;28.67;;;;;;;23.16;68.92;95366.19;5063245;28;20202;-72
2022/05/26 04:59:34;;;;;;;58.97;33.47;;;;;;;23.26;68.74;95377.47;5061624;28;20226;-72
2022/05/26 05:02:04;;;;;;;42.83;27.73;;;;;;;23.13;69.29;95373.38;5061828;28;20254;-72
2022/05/26 05:04:31;;;;;;;55.75;34.17;;;;;;;23.39;66.91;95385.13;5062193;28;20286;-72
2022/05/26 05:06:58;;;;;;;42.35;27.45;;;;;;;23.66;65.95;95385.56;5062243;28;20281;-72
2022/05/26 05:09:25;;;;;;;41.47;24.75;;;;;;;24.03;64.26;95386.00;5062315;28;20229;-71
2022/05/26 05:11:52;;;;;;;46.95;26.27;;;;;;;24.64;62.34;95387.94;5062457;28;20325;-71
2022/05/26 05:14:19;;;;;;;35.13;24.45;;;;;;;25.74;59.29;95387.09;5063168;28;20194;-72
2022/05/26 05:16:47;;;;;;;36.60;21.35;;;;;;;27.04;54.45;95382.13;5062443;28;21701;-72
2022/05/26 05:19:17;;;;;;;31.48;21.27;;;;;;;28.69;50.14;95394.88;5060591;28;21997;-72
2022/05/26 05:21:48;;;;;;;31.60;20.23;;;;;;;30.37;45.32;95392.19;5061925;28;20249;-72
2022/05/26 05:24:19;;;;;;;39.60;21.83;;;;;;;31.78;42.12;95388.84;5061950;28;20288;-72
2022/05/26 05:26:50;;;;;;;31.08;20.45;;;;;;;31.50;41.60;95394.72;5061663;28;20250;-72
2022/05/26 05:29:19;;;;;;;28.35;19.40;;;;;;;32.54;39.84;95392.41;5062319;28;20673;-72
2022/05/26 05:31:50;;;;;;;35.72;21.00;;;;;;;33.79;37.55;95396.00;5062096;28;20267;-72
2022/05/26 05:34:21;;;;;;;36.65;22.85;;;;;;;34.53;36.50;95393.91;5063192;28;20228;-73
2022/05/26 05:36:48;;;;;;;31.88;21.38;;;;;;;34.77;35.64;95395.28;5063390;28;20234;-73
2022/05/26 05:39:15;;;;;;;35.80;21.17;;;;;;;34.49;36.41;95399.75;5063354;28;20213;-73
2022/05/26 05:41:42;;;;;;;31.58;21.58;;;;;;;33.35;37.41;95409.25;5063095;28;20624;-73
2022/05/26 05:44:09;;;;;;;34.50;21.75;;;;;;;32.07;40.10;95416.28;5063456;28;20985;-72
2022/05/26 05:46:53;;;;;;;30.48;20.75;;;;;;;30.92;42.46;95409.03;5062577;28;21181;-73
2022/05/26 05:49:22;;;;;;;32.60;20.35;;;;;;;29.61;45.29;95418.59;5063090;28;20293;-72
2022/05/26 05:51:50;;;;;;;34.83;20.98;;;;;;;28.17;48.90;95426.16;5063219;28;20282;-72
2022/05/26 05:54:17;;;;;;;42.97;21.77;;;;;;;27.62;49.81;95420.22;5063911;28;20205;-73
2022/05/26 05:56:44;;;;;;;35.15;20.33;;;;;;;26.94;51.31;95425.69;5062975;28;21012;-73
2022/05/26 05:59:10;;;;;;;37.83;20.00;;;;;;;26.02;54.06;95440.16;5063439;28;20292;-72
2022/05/26 06:01:37;;;;;;;29.75;19.50;;;;;;;25.03;56.46;95431.38;5061355;28;20346;-72
2022/05/26 06:04:04;;;;;;;29.10;18.38;;;;;;;24.81;57.94;95434.13;5063512;28;20297;-72
2022/05/26 06:06:37;;;;;;;34.00;20.58;;;;;;;24.57;58.91;95441.38;5062412;28;20233;-73
2022/05/26 06:09:04;;;;;;;55.35;25.83;;;;;;;24.61;58.54;95441.00;5063257;28;20644;-72
2022/05/26 06:11:32;;;;;;;46.90;24.40;;;;;;;24.66;58.96;95440.63;5064250;28;20221;-72
2022/05/26 06:13:58;;;;;;;35.45;20.75;;;;;;;24.64;58.97;95445.94;5067301;28;20198;-72
2022/05/26 06:16:25;;;;;;;36.83;20.25;;;;;;;24.78;59.21;95447.38;5067280;28;22183;-72
2022/05/26 06:18:53;;;;;;;34.33;22.48;;;;;;;24.82;59.44;95440.97;5066984;28;20229;-72
2022/05/26 06:21:20;;;;;;;38.00;20.83;;;;;;;25.02;58.53;95449.72;5065173;28;20312;-71
2022/05/26 06:23:49;;;;;;;32.22;21.60;;;;;;;25.12;58.95;95444.56;5066458;28;20628;-72
2022/05/26 06:26:15;;;;;;;37.60;21.65;;;;;;;25.20;58.23;95452.56;5066059;28;20208;-71
2022/05/26 06:31:26;;;;;;;32.20;19.73;;;;;;;25.05;59.43;95460.69;5064449;28;20317;-72
2022/05/26 06:39:31;;;;;;;33.42;18.52;;;;;;;24.96;59.13;95450.25;5053815;28;20193;-72
2022/05/26 06:42:06;;;;;;;32.60;19.67;;;;;;;24.83;59.28;95466.00;5064900;28;20357;-71
2022/05/26 06:44:34;;;;;;;29.67;18.27;;;;;;;25.56;58.17;95467.59;5064870;28;20226;-72
2022/05/26 06:47:01;;;;;;;32.35;18.58;;;;;;;26.47;55.78;95457.91;5063112;28;20206;-73
2022/05/26 06:49:27;;;;;;;32.10;17.75;;;;;;;27.94;51.89;95466.75;5064859;28;20321;-72
2022/05/26 06:51:57;;;;;;;27.38;15.82;;;;;;;29.28;48.23;95458.66;5064536;28;20711;-72
2022/05/26 06:54:23;;;;;;;21.13;15.68;;;;;;;29.91;46.43;95468.78;5065842;28;20233;-72
2022/05/26 06:56:51;;;;;;;24.30;16.75;;;;;;;29.58;47.44;95462.59;5067847;28;20208;-72
2022/05/26 06:59:18;;;;;;;22.90;15.15;;;;;;;29.89;47.15;95470.72;5067203;28;20335;-73
2022/05/26 07:01:45;;;;;;;37.80;16.25;;;;;;;30.13;46.18;95468.19;5066366;28;20205;-73
2022/05/26 07:04:11;;;;;;;31.50;15.13;;;;;;;30.52;44.66;95470.19;5066946;28;20303;-72
2022/05/26 07:06:38;;;;;;;23.90;13.55;;;;;;;30.33;44.93;95459.03;5066164;28;20640;-73
2022/05/26 07:09:05;;;;;;;32.67;13.45;;;;;;;30.21;44.27;95465.56;5065714;28;20303;-73
2022/05/26 07:11:32;;;;;;;22.02;12.43;;;;;;;30.10;43.53;95468.53;5065757;28;20294;-72
2022/05/26 07:14:00;;;;;;;23.17;13.65;;;;;;;29.86;43.46;95466.63;5065181;28;20628;-72
2022/05/26 07:16:27;;;;;;;14.82;10.65;;;;;;;29.69;42.88;95463.16;5066512;28;20251;-72
2022/05/26 07:18:55;;;;;;;17.10;10.68;;;;;;;29.73;42.74;95471.47;5066638;28;20274;-72
2022/05/26 07:21:23;;;;;;;20.10;10.98;;;;;;;29.95;42.24;95464.84;5065276;28;20359;-72
2022/05/26 07:23:49;;;;;;;22.35;11.98;;;;;;;30.16;41.62;95467.06;5066180;28;20780;-72
2022/05/26 07:26:17;;;;;;;16.17;10.07;;;;;;;30.24;42.03;95465.25;5065909;28;20683;-72
2022/05/26 07:28:44;;;;;;;20.48;12.98;;;;;;;30.37;41.06;95464.78;5065309;28;20339;-72
2022/05/26 07:31:14;;;;;;;24.05;11.77;;;;;;;30.66;39.87;95459.09;5066209;28;20202;-72
2022/05/26 07:33:41;;;;;;;14.13;7.38;;;;;;;30.61;37.88;95458.75;5064581;28;20264;-74
2022/05/26 07:41:16;;;;;;;20.85;8.13;;;;;;;30.18;38.29;95465.91;5064659;28;20266;-74
2022/05/26 07:41:41;;;;;;;19.30;8.18;;;;;;;30.18;39.29;95455.44;5065494;28;20233;-74
2022/05/26 07:44:08;;;;;;;62.95;37.22;;;;;;;30.10;40.08;95473.75;5065802;28;20198;-71
2022/05/26 07:46:36;;;;;;;44.42;25.55;;;;;;;30.29;39.09;95473.47;5065422;28;20201;-74
2022/05/26 07:49:05;;;;;;;140.35;93.72;;;;;;;30.73;39.28;95462.66;5065417;28;20242;-74
2022/05/26 07:51:32;;;;;;;51.45;30.83;;;;;;;30.70;38.50;95469.06;5064374;28;20202;-71
2022/05/26 07:54:00;;;;;;;45.28;27.70;;;;;;;30.44;37.94;95481.50;5065315;28;20208;-71
2022/05/26 07:56:31;;;;;;;24.67;18.30;;;;;;;29.90;38.20;95477.63;5065217;28;20212;-71
2022/05/26 07:58:57;;;;;;;32.63;20.63;;;;;;;29.90;38.47;95482.84;5065290;28;20239;-73
2022/05/26 08:01:24;;;;;;;13.45;8.07;;;;;;;29.56;37.52;95465.38;5065106;28;20635;-72
2022/05/26 08:03:53;;;;;;;10.68;8.32;;;;;;;29.30;38.71;95481.09;5064662;28;20209;-72
2022/05/26 08:06:21;;;;;;;12.10;7.03;;;;;;;29.26;38.39;95473.72;5063763;28;20201;-72
2022/05/26 08:08:49;;;;;;;10.73;4.80;;;;;;;29.02;38.86;95474.38;5065439;28;20210;-72
2022/05/26 08:11:16;;;;;;;6.00;4.97;;;;;;;29.18;38.12;95482.38;5063077;28;20650;-73
2022/05/26 08:13:43;;;;;;;16.85;5.05;;;;;;;29.47;38.76;95486.44;5064014;28;20270;-72
2022/05/26 08:16:09;;;;;;;10.48;4.72;;;;;;;29.38;38.54;95482.94;5063082;28;20267;-72
2022/05/26 08:18:36;;;;;;;12.95;5.38;;;;;;;29.09;38.74;95473.63;5062274;28;20203;-72
2022/05/26 08:21:09;;;;;;;10.88;5.40;;;;;;;29.37;39.09;95482.13;5062675;28;20309;-74
2022/05/26 08:23:36;;;;;;;8.88;4.68;;;;;;;29.16;39.16;95478.25;5062500;28;20289;-74
2022/05/26 08:26:03;;;;;;;15.30;4.93;;;;;;;28.88;39.02;95480.19;5063385;28;20672;-73
2022/05/26 08:28:30;;;;;;;13.10;5.93;;;;;;;28.99;39.71;95487.78;5064259;28;20255;-74
2022/05/26 08:30:58;;;;;;;9.90;4.72;;;;;;;29.00;39.73;95482.41;5064491;28;20233;-74
2022/05/26 08:33:25;;;;;;;9.25;4.63;;;;;;;28.97;39.97;95490.53;5063435;28;20694;-73
2022/05/26 08:36:00;;;;;;;8.70;4.57;;;;;;;29.12;40.43;95475.13;5063712;28;20229;-74
2022/05/26 08:38:28;;;;;;;12.15;5.63;;;;;;;29.22;40.88;95493.31;5064525;28;20205;-73
2022/05/26 08:40:55;;;;;;;8.93;4.80;;;;;;;29.29;39.63;95494.34;5064689;28;20296;-73
2022/05/26 08:43:26;;;;;;;15.80;5.43;;;;;;;28.96;40.16;95503.78;5062584;28;20676;-72
2022/05/26 08:45:55;;;;;;;8.20;5.28;;;;;;;28.76;40.49;95497.88;5064128;28;20290;-72
2022/05/26 08:48:40;;;;;;;9.95;4.63;;;;;;;28.58;41.02;95492.69;5064547;28;20203;-72
2022/05/26 08:51:10;;;;;;;7.20;4.90;;;;;;;28.46;41.45;95490.47;5063769;28;20197;-73
2022/05/26 08:53:41;;;;;;;9.77;4.93;;;;;;;28.47;41.57;95495.53;5063442;28;20731;-73
2022/05/26 08:56:12;;;;;;;5.13;4.47;;;;;;;28.49;41.19;95490.16;5063821;28;20229;-72
2022/05/26 08:58:45;;;;;;;10.13;4.65;;;;;;;28.58;40.87;95494.47;5063854;28;20209;-72
2022/05/26 09:01:16;;;;;;;16.13;5.30;;;;;;;28.76;41.40;95484.81;5063237;28;20201;-73
2022/05/26 09:03:45;;;;;;;7.20;4.88;;;;;;;28.94;40.88;95490.88;5064005;28;20202;-74
2022/05/26 09:06:16;;;;;;;16.38;5.97;;;;;;;29.05;40.61;95493.22;5063490;28;20198;-74
2022/05/26 09:14:25;;;;;;;15.57;4.93;;;;;;;29.31;39.43;95484.53;5063889;28;20764;-74
2022/05/26 09:16:57;;;;;;;11.13;4.90;;;;;;;29.40;40.20;95488.88;5063099;28;20205;-74
2022/05/26 09:19:24;;;;;;;10.05;4.43;;;;;;;29.35;40.09;95483.25;5062089;28;20292;-74
2022/05/26 09:21:53;;;;;;;11.85;4.28;;;;;;;29.58;39.35;95481.75;5061383;28;20654;-74
2022/05/26 09:24:24;;;;;;;8.23;5.28;;;;;;;29.86;39.51;95484.16;5063864;28;20285;-73
2022/05/26 09:26:55;;;;;;;7.97;4.28;;;;;;;29.82;38.38;95482.81;5063573;28;20202;-75
2022/05/26 09:29:26;;;;;;;8.15;4.28;;;;;;;29.67;38.70;95486.06;5062937;28;20202;-74
2022/05/26 09:31:54;;;;;;;8.57;3.85;;;;;;;29.77;39.29;95489.34;5061702;28;20202;-74
2022/05/26 09:34:23;;;;;;;8.60;4.65;;;;;;;29.85;38.83;95487.75;5061530;28;20307;-74
2022/05/26 09:36:52;;;;;;;9.25;4.82;;;;;;;29.88;38.03;95490.06;5063863;28;20206;-74
2022/05/26 09:39:23;;;;;;;11.73;4.97;;;;;;;29.72;37.79;95486.38;5063982;28;20221;-74
2022/05/26 09:41:52;;;;;;;9.32;4.53;;;;;;;29.75;37.89;95490.50;5062693;28;20201;-73
2022/05/26 09:44:29;;;;;;;8.93;4.13;;;;;;;29.64;38.08;95488.16;5063687;28;20206;-73
2022/05/26 09:46:58;;;;;;;11.80;4.00;;;;;;;29.55;38.36;95489.94;5063802;28;20835;-74
2022/05/26 09:49:31;;;;;;;11.15;8.45;;;;;;;29.73;38.61;95485.41;5063702;28;20204;-74
2022/05/26 09:52:10;;;;;;;21.25;13.18;;;;;;;29.81;38.79;95483.81;5061868;28;20673;-74
2022/05/26 09:54:38;;;;;;;25.73;19.35;;;;;;;29.92;39.48;95480.91;5064770;28;20225;-74
2022/05/26 09:57:17;;;;;;;31.45;18.80;;;;;;;29.96;39.29;95480.41;5065390;28;20209;-74
2022/05/26 09:59:45;;;;;;;18.52;12.32;;;;;;;29.90;38.55;95477.63;5065499;28;20282;-72
2022/05/26 10:02:18;;;;;;;18.58;11.18;;;;;;;30.03;38.68;95478.00;5064624;28;20296;-73
2022/05/26 10:05:01;;;;;;;12.88;8.70;;;;;;;29.88;38.20;95474.34;5063783;28;20694;-74
2022/05/26 10:07:48;;;;;;;10.38;6.45;;;;;;;29.91;38.26;95468.78;5062463;28;20305;-73
2022/05/26 10:10:24;;;;;;;13.75;6.30;;;;;;;29.93;38.16;95467.66;5062595;28;20206;-72
2022/05/26 10:13:19;;;;;;;12.55;8.40;;;;;;;29.81;37.69;95462.84;5062076;28;20866;-72
2022/05/26 10:15:56;;;;;;;52.65;28.92;;;;;;;29.51;36.19;95474.69;5062499;28;20253;-72
2022/05/26 10:18:46;;;;;;;20.27;12.48;;;;;;;29.46;34.68;95475.13;5061389;28;20598;-73
2022/05/26 10:21:29;;;;;;;15.95;7.85;;;;;;;29.35;32.60;95463.13;5064948;28;20230;-72
2022/05/26 10:24:22;;;;;;;8.30;3.80;;;;;;;29.48;33.86;95475.81;5066032;28;20379;-72
2022/05/26 10:26:57;;;;;;;16.40;5.25;;;;;;;29.53;34.47;95481.41;5066968;28;20920;-71
2022/05/26 10:29:38;;;;;;;6.90;3.83;;;;;;;29.55;32.77;95474.22;5062608;28;20247;-75
2022/05/26 10:32:18;;;;;;;7.03;4.35;;;;;;;29.51;32.53;95478.13;5063995;28;20194;-72
2022/05/26 10:35:01;;;;;;;12.68;4.63;;;;;;;29.32;33.20;95483.56;5065153;28;20627;-74
2022/05/26 10:37:41;;;;;;;8.73;3.92;;;;;;;29.41;34.16;95473.03;5071989;28;20669;-73
2022/05/26 10:40:38;;;;;;;8.23;3.38;;;;;;;29.51;31.75;95472.88;5084812;28;20672;-73
2022/05/26 10:43:10;;;;;;;10.60;3.70;;;;;;;29.75;30.64;95475.59;5071824;28;20280;-73
2022/05/26 10:45:39;;;;;;;8.20;3.88;;;;;;;29.86;31.54;95463.19;5067157;28;20194;-74
2022/05/26 10:48:15;;;;;;;5.72;3.25;;;;;;;29.74;32.21;95473.94;5067709;28;20217;-73
2022/05/26 10:50:47;;;;;;;10.73;3.67;;;;;;;29.49;31.76;95472.22;5067410;28;20252;-73
2022/05/26 10:53:20;;;;;;;9.18;3.28;;;;;;;29.46;33.11;95467.28;5068287;28;20657;-73
2022/05/26 10:55:52;;;;;;;5.68;3.03;;;;;;;29.40;34.08;95454.84;5068358;28;20199;-74
2022/05/26 10:58:28;;;;;;;6.30;3.08;;;;;;;29.38;34.67;95464.63;5086480;28;20194;-73
2022/05/26 11:01:00;;;;;;;6.38;3.33;;;;;;;29.48;35.58;95462.72;5091832;28;20209;-73
2022/05/26 11:03:35;;;;;;;14.85;4.15;;;;;;;29.67;35.41;95457.25;5076164;28;20205;-73
2022/05/26 11:06:06;;;;;;;13.35;4.15;;;;;;;29.88;36.00;95459.44;5073348;28;20280;-73
2022/05/26 11:08:40;;;;;;;8.85;4.20;;;;;;;29.71;36.72;95448.06;5073682;28;20206;-73
2022/05/26 11:11:14;;;;;;;13.10;4.30;;;;;;;29.55;36.30;95461.13;5073638;28;20284;-73
2022/05/26 11:13:53;;;;;;;7.85;3.63;;;;;;;29.31;36.05;95440.03;5073679;28;20229;-73
2022/05/26 11:19:33;;;;;;;12.95;3.65;;;;;;;29.06;35.00;95458.22;5073399;28;20201;-73
2022/05/26 11:22:01;;;;;;;11.68;3.50;;;;;;;28.92;35.02;95460.59;5073573;28;20234;-73
2022/05/26 11:24:29;;;;;;;8.70;3.22;;;;;;;28.94;35.50;95449.00;5073075;28;20256;-73
2022/05/26 11:27:02;;;;;;;8.98;3.45;;;;;;;29.22;35.00;95456.66;5072010;28;20301;-72
2022/05/26 11:29:36;;;;;;;7.47;3.60;;;;;;;29.51;35.71;95428.38;5071067;28;20203;-73
2022/05/26 11:37:58;;;;;;;5.78;3.65;;;;;;;30.24;34.28;95428.53;5028089;28;20696;-73
2022/05/26 11:40:33;;;;;;;7.50;3.72;;;;;;;30.30;34.24;95420.03;5070738;28;20194;-73
2022/05/26 11:43:01;;;;;;;12.85;3.63;;;;;;;30.19;34.03;95425.59;5072400;28;20661;-73
2022/05/26 11:45:32;;;;;;;9.90;3.58;;;;;;;30.09;33.67;95431.00;5072727;28;20197;-73
2022/05/26 11:48:00;;;;;;;8.07;3.42;;;;;;;30.20;32.85;95437.72;5071627;28;20195;-73
2022/05/26 11:50:41;;;;;;;6.82;3.58;;;;;;;30.24;32.44;95438.22;5070539;28;20657;-73
2022/05/26 11:53:14;;;;;;;7.78;3.53;;;;;;;30.28;33.70;95445.59;5070915;28;20705;-73
2022/05/26 11:55:53;;;;;;;15.52;3.85;;;;;;;30.34;34.23;95439.72;5070968;28;20673;-73
2022/05/26 11:58:38;;;;;;;12.10;3.83;;;;;;;30.35;34.20;95427.41;5071410;28;20239;-74
2022/05/26 12:01:37;;;;;;;9.45;3.50;;;;;;;30.50;34.13;95422.31;5070942;28;20194;-73
2022/05/26 12:04:26;;;;;;;11.05;3.50;;;;;;;30.67;34.94;95437.13;5072462;28;20199;-75
2022/05/26 12:06:56;;;;;;;10.13;4.05;;;;;;;31.03;35.93;95440.97;5072834;28;20204;-74
2022/05/26 12:09:32;;;;;;;9.15;3.53;;;;;;;31.10;34.76;95444.56;5071395;28;20289;-75
2022/05/26 12:12:01;;;;;;;11.65;3.92;;;;;;;30.73;36.27;95445.13;5072537;28;20251;-72
2022/05/26 12:14:32;;;;;;;8.50;3.30;;;;;;;30.66;36.06;95445.97;5072345;28;20222;-73
2022/05/26 12:17:30;;;;;;;5.45;3.70;;;;;;;30.33;37.17;95453.81;5072721;28;20195;-74